Time;durP1;ratioP1;P1;durP2;ratioP2;P2;SDS_P1;SDS_P2;PMS_P1;PMS_P2;Temp;Humidity;BMP_temperature;BMP_pressure;BME280_temperature;BME280_humidity;BME280_pressure;Samples;Min_cycle;Max_cycle;Signal;HPM_P1;HPM_P2
2023/08/29 00:01:22;;;;;;;3.70;3.00;;;14.10;99.90;;;;;;4953297;28;20035;-76
2023/08/29 00:03:47;;;;;;;6.32;2.95;;;14.10;99.90;;;;;;4953955;28;20043;-76
2023/08/29 00:06:19;;;;;;;4.90;2.80;;;14.10;99.90;;;;;;4954606;28;20085;-76
2023/08/29 00:08:44;;;;;;;3.70;3.17;;;14.10;99.90;;;;;;4935556;28;20027;-76
2023/08/29 00:11:12;;;;;;;4.00;2.85;;;14.10;99.90;;;;;;4950348;28;20549;-76
2023/08/29 00:13:38;;;;;;;5.07;2.97;;;14.10;99.90;;;;;;4948617;28;20094;-76
2023/08/29 00:16:07;;;;;;;4.40;2.65;;;14.10;99.90;;;;;;4952865;28;20181;-75
2023/08/29 00:18:38;;;;;;;3.83;2.67;;;14.10;99.90;;;;;;4950685;28;20066;-76
2023/08/29 00:21:03;;;;;;;4.85;3.22;;;14.10;99.90;;;;;;4949640;28;20038;-76
2023/08/29 00:23:29;;;;;;;3.67;3.00;;;14.10;99.90;;;;;;4953886;28;20027;-75
2023/08/29 00:25:57;;;;;;;8.45;3.33;;;14.10;99.90;;;;;;4952000;28;20161;-76
2023/08/29 00:28:26;;;;;;;4.10;3.08;;;14.10;99.90;;;;;;4951218;28;20082;-76
2023/08/29 00:30:53;;;;;;;4.45;3.17;;;14.10;99.90;;;;;;4934846;28;20074;-75
2023/08/29 00:33:18;;;;;;;5.07;3.78;;;14.10;99.90;;;;;;4949759;28;20082;-77
2023/08/29 00:35:47;;;;;;;5.65;2.92;;;14.10;99.90;;;;;;4940743;28;20478;-75
2023/08/29 00:38:14;;;;;;;4.65;3.22;;;14.10;99.90;;;;;;4947526;28;20023;-76
2023/08/29 00:40:40;;;;;;;4.93;3.47;;;14.10;99.90;;;;;;4936247;29;20039;-76
2023/08/29 00:43:06;;;;;;;5.25;3.13;;;14.10;99.90;;;;;;4953395;28;20042;-76
2023/08/29 00:45:37;;;;;;;7.18;3.33;;;14.10;99.90;;;;;;4941104;28;20126;-77
2023/08/29 00:48:04;;;;;;;4.95;3.00;;;14.10;99.90;;;;;;4951450;28;20508;-76
2023/08/29 00:50:30;;;;;;;4.10;3.03;;;14.10;99.90;;;;;;4948966;28;20130;-76
2023/08/29 00:53:04;;;;;;;6.10;3.53;;;14.10;99.90;;;;;;4946565;28;20153;-76
2023/08/29 00:55:32;;;;;;;3.20;2.83;;;14.00;99.90;;;;;;4951697;28;20027;-76
2023/08/29 00:58:02;;;;;;;10.00;3.85;;;14.00;99.90;;;;;;4952059;28;20065;-76
2023/08/29 01:00:29;;;;;;;6.68;3.88;;;14.00;99.90;;;;;;4949090;28;20031;-75
2023/08/29 01:02:55;;;;;;;6.20;3.78;;;14.00;99.90;;;;;;4952515;28;20027;-75
2023/08/29 01:05:21;;;;;;;6.45;3.20;;;14.00;99.90;;;;;;4953183;28;20062;-76
2023/08/29 01:07:59;;;;;;;5.43;4.00;;;14.00;99.90;;;;;;4952068;28;20046;-76
2023/08/29 01:11:00;;;;;;;3.97;3.00;;;14.00;99.90;;;;;;4950542;28;20066;-75
2023/08/29 01:14:21;;;;;;;4.30;3.35;;;13.90;99.90;;;;;;4913763;28;20126;-76
2023/08/29 01:17:22;;;;;;;10.50;3.67;;;13.90;99.90;;;;;;4872872;29;20043;-75
2023/08/29 01:19:51;;;;;;;3.75;2.70;;;13.90;99.90;;;;;;4861164;29;20543;-75
2023/08/29 01:22:35;;;;;;;6.65;3.17;;;13.90;99.90;;;;;;4933507;28;20039;-75
2023/08/29 01:25:29;;;;;;;3.47;3.03;;;13.90;99.90;;;;;;4947258;28;20031;-75
2023/08/29 01:27:55;;;;;;;4.22;3.30;;;13.90;99.90;;;;;;4929710;28;20043;-75
2023/08/29 01:30:22;;;;;;;6.90;3.55;;;13.90;99.90;;;;;;4949605;28;20035;-75
2023/08/29 01:32:48;;;;;;;5.80;4.00;;;13.80;99.90;;;;;;4932638;28;20027;-76
2023/08/29 01:35:16;;;;;;;7.47;3.60;;;13.90;99.90;;;;;;4948215;28;20110;-75
2023/08/29 01:37:42;;;;;;;7.15;4.00;;;13.90;99.90;;;;;;4950338;28;20439;-75
2023/08/29 01:40:11;;;;;;;4.32;3.50;;;13.90;99.90;;;;;;4951823;28;20119;-76
2023/08/29 01:42:42;;;;;;;3.67;3.05;;;13.80;99.90;;;;;;4950097;28;20465;-76
2023/08/29 01:45:08;;;;;;;5.13;3.65;;;13.90;99.90;;;;;;4952604;28;20046;-75
2023/08/29 01:47:34;;;;;;;8.45;3.45;;;13.80;99.90;;;;;;4952280;28;20123;-75
2023/08/29 01:50:03;;;;;;;5.45;3.60;;;13.80;99.90;;;;;;4950686;28;20335;-74
2023/08/29 01:52:34;;;;;;;5.50;3.33;;;13.80;99.90;;;;;;4951924;28;20027;-75
2023/08/29 01:55:00;;;;;;;5.05;3.83;;;13.80;99.90;;;;;;4950594;28;20181;-75
2023/08/29 01:57:27;;;;;;;6.88;3.55;;;13.80;99.90;;;;;;4952275;28;20061;-75
2023/08/29 01:59:57;;;;;;;5.57;3.30;;;13.80;99.90;;;;;;4952757;28;20031;-75
2023/08/29 02:02:26;;;;;;;4.28;3.58;;;13.80;99.90;;;;;;4951222;28;20027;-75
2023/08/29 02:04:54;;;;;;;5.82;3.53;;;13.80;99.90;;;;;;4949433;28;20031;-75
2023/08/29 02:07:20;;;;;;;4.70;4.00;;;13.80;99.90;;;;;;4950030;28;20479;-75
2023/08/29 02:09:45;;;;;;;6.63;4.07;;;13.80;99.90;;;;;;4950040;28;20035;-75
2023/08/29 02:12:13;;;;;;;6.28;4.25;;;13.80;99.90;;;;;;4946921;28;20105;-75
2023/08/29 02:14:38;;;;;;;7.18;4.03;;;13.80;99.90;;;;;;4953195;28;20055;-75
2023/08/29 02:17:07;;;;;;;6.13;3.85;;;13.80;99.90;;;;;;4949760;28;20033;-74
2023/08/29 02:19:32;;;;;;;4.00;3.60;;;13.80;99.90;;;;;;4952145;28;20106;-75
2023/08/29 02:21:58;;;;;;;6.82;4.20;;;13.80;99.90;;;;;;4949705;28;20027;-75
2023/08/29 02:24:24;;;;;;;5.25;3.85;;;13.80;99.90;;;;;;4951560;28;20030;-75
2023/08/29 02:26:49;;;;;;;4.57;3.80;;;13.80;99.90;;;;;;4953644;28;20023;-76
2023/08/29 02:29:15;;;;;;;4.70;3.50;;;13.80;99.90;;;;;;4951493;28;20097;-75
2023/08/29 02:31:43;;;;;;;6.43;4.30;;;13.80;99.90;;;;;;4945133;28;20110;-75
2023/08/29 02:34:09;;;;;;;6.10;3.70;;;13.80;99.90;;;;;;4963830;23;20047;-74
2023/08/29 02:36:37;;;;;;;4.07;3.67;;;13.80;99.90;;;;;;4949463;28;20033;-74
2023/08/29 02:39:10;;;;;;;10.30;3.92;;;13.80;99.90;;;;;;4963999;28;20123;-75
2023/08/29 02:41:36;;;;;;;5.25;3.30;;;13.80;99.90;;;;;;4949882;28;20505;-74
2023/08/29 02:44:01;;;;;;;7.53;3.80;;;13.80;99.90;;;;;;4971730;28;20034;-74
2023/08/29 02:46:33;;;;;;;6.95;4.35;;;13.80;99.90;;;;;;4970194;28;20394;-75
2023/08/29 02:49:02;;;;;;;5.30;3.90;;;13.80;99.90;;;;;;4968366;28;20429;-73
2023/08/29 02:51:33;;;;;;;6.22;4.10;;;13.80;99.90;;;;;;4970509;28;20046;-73
2023/08/29 02:54:08;;;;;;;5.15;3.80;;;13.80;99.90;;;;;;4954147;28;20053;-73
2023/08/29 02:56:34;;;;;;;8.73;4.45;;;13.80;99.90;;;;;;4967680;28;20218;-74
2023/08/29 02:58:59;;;;;;;5.50;3.85;;;13.70;99.90;;;;;;4970864;28;20133;-74
2023/08/29 03:01:31;;;;;;;6.90;4.00;;;13.70;99.90;;;;;;4968946;28;20424;-74
2023/08/29 03:03:57;;;;;;;9.32;4.65;;;13.80;99.90;;;;;;4970402;28;20026;-73
2023/08/29 03:06:23;;;;;;;12.35;4.25;;;13.70;99.90;;;;;;4972227;28;20030;-74
2023/08/29 03:08:48;;;;;;;6.22;4.40;;;13.70;99.90;;;;;;4966252;28;20282;-74
2023/08/29 03:11:17;;;;;;;6.47;4.22;;;13.70;99.90;;;;;;4971697;28;20038;-74
2023/08/29 03:13:42;;;;;;;6.10;4.32;;;13.70;99.90;;;;;;4967788;28;20031;-74
2023/08/29 03:16:17;;;;;;;5.97;4.30;;;13.80;99.90;;;;;;4973232;28;20077;-74
2023/08/29 03:18:46;;;;;;;4.95;4.10;;;13.70;99.90;;;;;;4968616;28;20057;-73
2023/08/29 03:21:14;;;;;;;8.00;4.88;;;13.80;99.90;;;;;;4968745;28;20031;-74
2023/08/29 03:23:40;;;;;;;5.57;4.70;;;13.80;99.90;;;;;;4952247;28;20026;-74
2023/08/29 03:26:12;;;;;;;5.22;4.15;;;13.80;99.90;;;;;;4968082;28;20366;-72
2023/08/29 03:28:37;;;;;;;4.88;4.18;;;13.80;99.90;;;;;;4968143;28;20034;-74
2023/08/29 03:31:14;;;;;;;10.50;4.15;;;13.80;99.90;;;;;;4965212;28;20026;-74
2023/08/29 03:33:40;;;;;;;6.15;4.38;;;13.80;99.90;;;;;;4968889;28;20035;-73
2023/08/29 03:36:07;;;;;;;7.03;4.10;;;13.80;99.90;;;;;;4969597;28;20122;-74
2023/08/29 03:38:37;;;;;;;12.52;4.72;;;13.80;99.90;;;;;;4952927;28;20015;-74
2023/08/29 03:41:12;;;;;;;6.22;4.55;;;13.90;99.90;;;;;;4969658;28;20093;-73
2023/08/29 03:43:37;;;;;;;5.57;4.65;;;13.90;99.90;;;;;;4967278;28;20050;-74
2023/08/29 03:46:22;;;;;;;10.13;4.45;;;13.80;99.90;;;;;;4964880;28;20035;-74
2023/08/29 03:48:50;;;;;;;;;;;13.90;99.90;;;;;;4970481;28;20031;-74
2023/08/29 03:51:21;;;;;;;6.25;4.68;;;13.80;99.90;;;;;;4965310;28;20351;-73
2023/08/29 03:53:47;;;;;;;6.43;4.88;;;13.90;99.90;;;;;;4956758;28;20486;-74
2023/08/29 03:56:22;;;;;;;6.10;4.82;;;13.90;99.90;;;;;;4953994;28;20077;-73
2023/08/29 03:58:49;;;;;;;7.35;4.82;;;13.90;99.90;;;;;;4969404;28;20027;-74
2023/08/29 04:01:15;;;;;;;7.00;4.88;;;13.90;99.90;;;;;;4964690;28;20031;-74
2023/08/29 04:03:44;;;;;;;8.57;5.35;;;13.90;99.90;;;;;;4950272;28;20026;-74
2023/08/29 04:06:12;;;;;;;7.28;5.13;;;13.90;99.90;;;;;;4968033;28;20031;-73
2023/08/29 04:08:37;;;;;;;7.85;5.30;;;13.90;99.90;;;;;;4969556;28;20074;-74
2023/08/29 04:11:04;;;;;;;6.88;5.43;;;13.90;99.90;;;;;;4948220;28;20117;-74
2023/08/29 04:13:30;;;;;;;9.05;4.63;;;13.80;99.90;;;;;;4968222;28;20031;-74
2023/08/29 04:16:01;;;;;;;6.90;5.22;;;13.90;99.90;;;;;;4970141;28;21578;-73
2023/08/29 04:18:45;;;;;;;10.10;6.53;;;13.80;99.90;;;;;;4965064;28;20062;-73
2023/08/29 04:21:10;;;;;;;10.48;5.57;;;13.90;99.90;;;;;;4965875;28;20081;-74
2023/08/29 04:23:36;;;;;;;9.23;5.75;;;13.80;99.90;;;;;;4970041;28;20473;-72
2023/08/29 04:26:08;;;;;;;8.85;5.57;;;13.90;99.90;;;;;;4967320;28;20081;-72
2023/08/29 04:28:33;;;;;;;9.32;5.82;;;13.90;99.90;;;;;;4968431;28;20066;-73
2023/08/29 04:31:11;;;;;;;7.25;5.30;;;13.80;99.90;;;;;;4970248;28;20505;-73
2023/08/29 04:33:42;;;;;;;7.28;5.85;;;13.80;99.90;;;;;;4973997;28;20891;-73
2023/08/29 04:36:16;;;;;;;9.05;5.45;;;13.80;99.90;;;;;;4953571;28;20155;-73
2023/08/29 04:38:51;;;;;;;9.07;6.13;;;13.80;99.90;;;;;;4962032;28;20036;-73
2023/08/29 04:41:16;;;;;;;6.80;5.45;;;13.80;99.90;;;;;;4952987;28;20077;-73
2023/08/29 04:43:48;;;;;;;8.00;6.05;;;13.80;99.90;;;;;;4970163;28;20058;-73
2023/08/29 04:46:14;;;;;;;7.80;6.25;;;13.80;99.90;;;;;;4970776;28;20030;-72
2023/08/29 04:48:39;;;;;;;12.20;6.53;;;13.80;99.90;;;;;;4970502;28;20408;-74
2023/08/29 04:51:08;;;;;;;18.20;6.82;;;13.80;99.90;;;;;;4950066;28;20142;-74
2023/08/29 04:53:33;;;;;;;12.32;6.25;;;13.80;99.90;;;;;;4968267;28;20039;-73
2023/08/29 04:56:04;;;;;;;8.00;6.22;;;13.80;99.90;;;;;;4962106;28;20373;-73
2023/08/29 04:58:30;;;;;;;11.68;6.32;;;13.80;99.90;;;;;;4966050;28;20114;-74
2023/08/29 05:01:00;;;;;;;6.97;6.00;;;13.80;99.90;;;;;;4969980;28;20397;-74
2023/08/29 05:03:29;;;;;;;10.10;5.93;;;13.80;99.90;;;;;;4970992;28;20045;-74
2023/08/29 05:05:55;;;;;;;8.93;5.95;;;13.80;99.90;;;;;;4952806;28;20121;-74
2023/08/29 05:08:23;;;;;;;10.73;6.40;;;13.80;99.90;;;;;;4966823;28;20113;-73
2023/08/29 05:10:52;;;;;;;7.72;6.15;;;13.80;99.90;;;;;;4971329;28;20042;-73
2023/08/29 05:13:17;;;;;;;10.30;6.75;;;13.80;99.90;;;;;;4967693;28;20026;-72
2023/08/29 05:15:52;;;;;;;9.95;6.20;;;13.80;99.90;;;;;;4972988;28;20503;-73
2023/08/29 05:18:18;;;;;;;8.00;6.32;;;13.90;99.90;;;;;;4967280;28;20495;-74
2023/08/29 05:20:46;;;;;;;9.10;6.65;;;13.90;99.90;;;;;;4969454;28;20113;-73
2023/08/29 05:23:12;;;;;;;10.40;6.82;;;13.80;99.90;;;;;;4971892;28;20117;-73
2023/08/29 05:25:44;;;;;;;8.70;6.72;;;13.90;99.90;;;;;;4970643;28;20167;-73
2023/08/29 05:28:12;;;;;;;11.13;6.93;;;13.90;99.90;;;;;;4970546;28;20050;-73
2023/08/29 05:30:54;;;;;;;9.18;7.43;;;13.90;99.90;;;;;;4970264;28;20041;-74
2023/08/29 05:33:20;;;;;;;10.00;6.97;;;13.90;99.90;;;;;;4972809;28;20023;-74
2023/08/29 05:35:49;;;;;;;11.10;7.05;;;13.90;99.90;;;;;;4970813;28;20500;-74
2023/08/29 05:38:14;;;;;;;11.63;7.43;;;13.90;99.90;;;;;;4971766;28;20216;-73
2023/08/29 05:40:52;;;;;;;10.73;7.65;;;13.90;99.90;;;;;;4973735;28;20038;-74
2023/08/29 05:43:18;;;;;;;9.00;7.22;;;13.90;99.90;;;;;;4969952;28;20058;-74
2023/08/29 05:45:46;;;;;;;10.40;7.32;;;13.90;99.90;;;;;;4970377;28;20052;-73
2023/08/29 05:48:15;;;;;;;12.05;8.40;;;13.90;99.90;;;;;;4969719;28;20413;-73
2023/08/29 05:50:43;;;;;;;9.98;7.18;;;13.90;99.90;;;;;;4975950;28;20078;-75
2023/08/29 05:53:12;;;;;;;12.68;8.30;;;13.80;99.90;;;;;;4974669;28;20035;-75
2023/08/29 05:55:37;;;;;;;12.52;7.93;;;13.80;99.90;;;;;;4971034;28;20058;-74
2023/08/29 05:58:03;;;;;;;9.63;8.13;;;13.90;99.90;;;;;;4974449;28;20390;-74
2023/08/29 06:00:29;;;;;;;11.35;8.02;;;13.90;99.90;;;;;;4969452;28;20039;-73
2023/08/29 06:02:55;;;;;;;9.82;8.13;;;13.90;99.90;;;;;;4974774;28;20042;-75
2023/08/29 06:05:21;;;;;;;10.40;6.97;;;13.90;99.90;;;;;;4984983;28;20034;-78
2023/08/29 06:07:49;;;;;;;10.50;8.15;;;13.90;99.90;;;;;;4971371;28;20019;-77
2023/08/29 06:10:20;;;;;;;10.38;8.18;;;14.00;99.90;;;;;;4976817;28;20042;-76
2023/08/29 06:12:49;;;;;;;11.38;7.60;;;14.00;99.90;;;;;;4957518;28;20027;-74
2023/08/29 06:15:15;;;;;;;11.90;7.60;;;14.00;99.90;;;;;;4967303;28;20023;-74
2023/08/29 06:17:40;;;;;;;13.32;8.68;;;14.10;99.90;;;;;;4993059;28;20033;-75
2023/08/29 06:20:08;;;;;;;10.38;8.35;;;14.10;99.90;;;;;;4965955;28;20087;-75
2023/08/29 06:22:34;;;;;;;12.88;8.88;;;14.10;99.90;;;;;;4961196;28;20100;-76
2023/08/29 06:24:59;;;;;;;14.60;9.20;;;14.10;99.90;;;;;;4969292;28;20027;-73
2023/08/29 06:27:25;;;;;;;12.05;8.40;;;14.10;99.90;;;;;;4966062;28;20023;-76
2023/08/29 06:29:50;;;;;;;14.75;9.32;;;14.10;99.90;;;;;;4950119;28;20031;-75
2023/08/29 06:32:16;;;;;;;10.60;9.02;;;14.10;99.90;;;;;;4961485;28;20031;-75
2023/08/29 06:34:41;;;;;;;11.32;8.98;;;14.10;99.90;;;;;;4967366;28;20524;-73
2023/08/29 06:37:10;;;;;;;13.13;9.05;;;14.10;99.90;;;;;;4966155;28;20058;-73
2023/08/29 06:39:39;;;;;;;13.82;9.68;;;14.10;99.90;;;;;;4968804;28;20082;-73
2023/08/29 06:42:07;;;;;;;16.73;10.32;;;14.10;99.90;;;;;;4971034;28;20022;-74
2023/08/29 06:44:36;;;;;;;16.13;9.55;;;14.10;99.90;;;;;;4971898;28;20034;-73
2023/08/29 06:47:02;;;;;;;15.35;9.93;;;14.20;99.90;;;;;;4970284;28;20031;-73
2023/08/29 06:49:27;;;;;;;15.10;10.45;;;14.10;99.90;;;;;;4968179;28;20022;-73
2023/08/29 06:51:53;;;;;;;15.82;9.75;;;14.20;99.90;;;;;;4967508;28;20113;-73
2023/08/29 06:54:19;;;;;;;15.85;9.25;;;14.10;99.90;;;;;;4966541;28;20429;-73
2023/08/29 06:56:44;;;;;;;15.98;9.65;;;14.20;99.90;;;;;;4970239;28;20023;-73
2023/08/29 06:59:10;;;;;;;16.73;9.65;;;14.20;99.90;;;;;;4950608;28;20030;-75
2023/08/29 07:01:37;;;;;;;13.30;8.65;;;14.20;99.90;;;;;;4971299;28;20114;-73
2023/08/29 07:04:03;;;;;;;12.88;9.35;;;14.10;99.90;;;;;;4967681;28;20023;-73
2023/08/29 07:06:29;;;;;;;13.82;9.77;;;14.10;99.90;;;;;;4971112;28;20418;-74
2023/08/29 07:08:54;;;;;;;13.63;9.95;;;14.10;99.90;;;;;;4968176;28;20066;-73
2023/08/29 07:11:20;;;;;;;15.85;9.65;;;14.10;99.90;;;;;;4969047;28;20034;-73
2023/08/29 07:13:46;;;;;;;14.85;10.52;;;14.10;99.90;;;;;;4969935;28;20027;-73
2023/08/29 07:16:14;;;;;;;13.18;9.48;;;14.10;99.90;;;;;;4967774;28;20031;-72
2023/08/29 07:18:46;;;;;;;12.75;9.02;;;14.10;99.90;;;;;;4962883;28;20022;-73
2023/08/29 07:21:12;;;;;;;16.95;11.07;;;14.10;99.90;;;;;;4964026;28;20042;-73
2023/08/29 07:23:43;;;;;;;15.10;10.93;;;14.10;99.90;;;;;;4967867;28;20589;-74
2023/08/29 07:26:09;;;;;;;14.75;10.55;;;14.10;99.90;;;;;;4967483;28;20752;-73
2023/08/29 07:28:34;;;;;;;16.00;10.55;;;14.10;99.90;;;;;;4971406;28;20106;-72
2023/08/29 07:31:00;;;;;;;15.80;10.50;;;14.10;99.90;;;;;;4968675;28;20110;-72
2023/08/29 07:33:26;;;;;;;15.82;9.93;;;14.10;99.90;;;;;;4964481;28;20822;-73
2023/08/29 07:35:54;;;;;;;15.30;11.13;;;14.10;99.90;;;;;;4972410;28;20110;-71
2023/08/29 07:38:20;;;;;;;15.40;10.07;;;14.20;99.90;;;;;;4969499;28;20030;-72
2023/08/29 07:40:46;;;;;;;16.65;10.73;;;14.20;99.90;;;;;;4970850;28;20042;-71
2023/08/29 07:43:12;;;;;;;13.57;10.85;;;14.20;99.90;;;;;;4968716;28;20118;-73
2023/08/29 07:45:38;;;;;;;17.08;11.25;;;14.20;99.90;;;;;;4968129;28;20023;-72
2023/08/29 07:48:04;;;;;;;15.68;11.18;;;14.20;99.90;;;;;;4950775;28;20038;-73
2023/08/29 07:50:30;;;;;;;14.55;10.95;;;14.30;99.90;;;;;;4966858;28;20027;-72
2023/08/29 07:52:56;;;;;;;15.50;10.65;;;14.30;99.90;;;;;;4967464;28;20406;-73
2023/08/29 07:55:22;;;;;;;13.30;10.27;;;14.30;99.90;;;;;;4970252;28;20630;-72
2023/08/29 07:57:48;;;;;;;16.50;10.52;;;14.30;99.90;;;;;;4966036;28;20467;-73
2023/08/29 08:00:15;;;;;;;14.93;10.95;;;14.30;99.90;;;;;;4969286;28;20039;-73
2023/08/29 08:02:41;;;;;;;14.73;11.07;;;14.30;99.90;;;;;;4970478;28;20022;-72
2023/08/29 08:05:11;;;;;;;15.02;10.90;;;14.40;99.90;;;;;;4970216;28;20037;-72
2023/08/29 08:07:42;;;;;;;15.52;11.15;;;14.40;99.90;;;;;;4973064;28;20058;-73
2023/08/29 08:10:09;;;;;;;14.52;9.55;;;14.40;99.90;;;;;;4971210;28;20038;-73
2023/08/29 08:12:35;;;;;;;12.30;9.60;;;14.40;99.90;;;;;;4955968;28;20038;-73
2023/08/29 08:15:04;;;;;;;14.25;10.52;;;14.40;99.90;;;;;;4971319;28;20022;-73
2023/08/29 08:17:30;;;;;;;16.75;11.40;;;14.40;99.90;;;;;;4955711;28;20508;-73
2023/08/29 08:19:56;;;;;;;14.85;10.20;;;14.40;99.90;;;;;;4976517;28;20053;-73
2023/08/29 08:22:22;;;;;;;13.32;10.15;;;14.40;99.90;;;;;;4970627;28;20106;-73
2023/08/29 08:24:48;;;;;;;12.35;10.23;;;14.30;99.90;;;;;;4978125;28;20426;-73
2023/08/29 08:27:17;;;;;;;13.38;10.48;;;14.30;99.90;;;;;;4973180;28;20037;-72
2023/08/29 08:29:46;;;;;;;16.33;11.40;;;14.40;99.90;;;;;;4972542;28;20030;-72
2023/08/29 08:32:11;;;;;;;13.30;10.55;;;14.30;99.90;;;;;;4972239;28;20049;-73
2023/08/29 08:34:37;;;;;;;15.40;10.68;;;14.40;99.90;;;;;;4972715;28;20031;-75
2023/08/29 08:37:05;;;;;;;14.32;10.45;;;14.40;99.90;;;;;;4966815;28;20061;-76
2023/08/29 08:39:34;;;;;;;14.38;10.45;;;14.40;99.90;;;;;;4967470;28;20097;-75
2023/08/29 08:42:03;;;;;;;13.75;10.60;;;14.40;99.90;;;;;;4971322;28;20039;-77
2023/08/29 08:44:30;;;;;;;15.98;9.95;;;14.40;99.90;;;;;;4970310;28;20034;-76
2023/08/29 08:47:00;;;;;;;16.60;11.48;;;14.40;99.90;;;;;;4961123;28;20418;-76
2023/08/29 08:49:29;;;;;;;14.60;11.68;;;14.40;99.90;;;;;;4967669;28;20031;-76
2023/08/29 08:51:57;;;;;;;15.10;11.07;;;14.40;99.90;;;;;;4971715;28;20494;-77
2023/08/29 08:54:24;;;;;;;15.65;11.07;;;14.40;99.90;;;;;;4957767;28;20019;-76
2023/08/29 08:56:57;;;;;;;16.70;11.45;;;14.50;99.90;;;;;;4969568;28;20024;-77
2023/08/29 08:59:24;;;;;;;14.50;11.07;;;14.50;99.90;;;;;;4967802;28;20391;-76
2023/08/29 09:01:50;;;;;;;13.20;10.27;;;14.50;99.90;;;;;;4971945;28;20286;-75
2023/08/29 09:04:18;;;;;;;15.27;11.00;;;14.60;99.90;;;;;;4972675;28;20042;-75
2023/08/29 09:06:44;;;;;;;14.05;11.35;;;14.60;99.90;;;;;;4973137;28;21304;-76
2023/08/29 09:09:23;;;;;;;14.23;10.40;;;14.60;99.90;;;;;;4968681;28;20046;-76
2023/08/29 09:11:52;;;;;;;12.05;9.82;;;14.70;99.90;;;;;;4967811;28;20027;-76
2023/08/29 09:14:19;;;;;;;13.43;10.35;;;14.70;99.90;;;;;;4965186;28;20019;-75
2023/08/29 09:16:54;;;;;;;14.70;11.20;;;14.80;99.90;;;;;;4968679;28;20069;-76
2023/08/29 09:19:23;;;;;;;14.90;10.63;;;14.80;99.90;;;;;;4974031;28;20058;-75
2023/08/29 09:21:50;;;;;;;12.45;10.02;;;14.80;99.90;;;;;;4952293;28;20413;-76
2023/08/29 09:24:35;;;;;;;13.70;10.00;;;14.80;99.90;;;;;;4967044;28;20031;-77
2023/08/29 09:27:10;;;;;;;12.43;10.30;;;14.80;99.90;;;;;;4950184;28;20034;-77
2023/08/29 09:29:36;;;;;;;12.15;10.18;;;14.80;99.90;;;;;;4971697;28;20073;-76
2023/08/29 09:32:13;;;;;;;12.38;10.60;;;14.80;99.90;;;;;;4952782;28;20441;-76
2023/08/29 09:34:43;;;;;;;12.55;9.45;;;14.80;99.90;;;;;;4957419;28;22209;-76
2023/08/29 09:37:11;;;;;;;13.00;9.57;;;14.80;99.90;;;;;;4970800;28;20044;-76
2023/08/29 09:39:38;;;;;;;13.88;10.40;;;14.80;99.90;;;;;;4971035;28;20084;-76
2023/08/29 09:42:12;;;;;;;12.20;9.45;;;14.80;99.90;;;;;;4969867;28;20544;-76
2023/08/29 09:44:50;;;;;;;10.52;9.43;;;14.80;99.90;;;;;;4966423;28;20159;-76
2023/08/29 09:47:25;;;;;;;11.70;8.82;;;14.80;99.90;;;;;;4966856;28;20051;-76
2023/08/29 09:49:51;;;;;;;12.00;10.00;;;14.80;99.90;;;;;;4957688;28;20426;-77
2023/08/29 09:52:18;;;;;;;14.30;10.63;;;14.80;99.90;;;;;;4948398;28;20046;-76
2023/08/29 09:54:54;;;;;;;13.07;9.93;;;14.70;99.90;;;;;;4968590;28;20397;-77
2023/08/29 09:57:27;;;;;;;12.82;10.38;;;14.70;99.90;;;;;;4967619;28;20485;-75
2023/08/29 09:59:58;;;;;;;13.63;11.40;;;14.70;99.90;;;;;;4957797;28;20059;-75
2023/08/29 10:02:30;;;;;;;12.52;10.30;;;14.80;99.90;;;;;;4954354;28;20405;-74
2023/08/29 10:05:05;;;;;;;15.75;10.30;;;14.80;99.90;;;;;;4973432;28;20062;-75
2023/08/29 10:07:46;;;;;;;13.52;10.27;;;14.80;99.90;;;;;;4979305;28;20050;-77
2023/08/29 10:10:12;;;;;;;13.02;9.13;;;14.90;99.90;;;;;;4964402;28;20057;-75
2023/08/29 10:12:41;;;;;;;12.07;10.00;;;14.80;99.90;;;;;;4952301;28;20493;-76
2023/08/29 10:15:08;;;;;;;14.70;9.65;;;14.80;99.90;;;;;;4963676;28;20027;-77
2023/08/29 10:17:37;;;;;;;13.20;9.65;;;14.80;99.90;;;;;;4968024;28;20023;-77
2023/08/29 10:20:12;;;;;;;12.05;9.45;;;14.90;99.90;;;;;;4967712;28;20041;-76
2023/08/29 10:22:40;;;;;;;10.77;9.40;;;14.90;99.90;;;;;;4956843;28;20382;-76
2023/08/29 10:25:09;;;;;;;11.52;10.07;;;15.00;99.90;;;;;;4941915;28;20035;-76
2023/08/29 10:27:35;;;;;;;11.00;8.57;;;15.00;99.90;;;;;;4962106;28;20122;-76
2023/08/29 10:30:05;;;;;;;10.40;8.93;;;15.10;99.90;;;;;;4968491;28;20122;-75
2023/08/29 10:32:33;;;;;;;12.15;8.52;;;15.20;99.90;;;;;;4970923;28;20471;-75
2023/08/29 10:34:59;;;;;;;11.90;8.80;;;15.30;99.90;;;;;;4957596;28;20058;-75
2023/08/29 10:37:27;;;;;;;9.40;7.38;;;15.30;99.90;;;;;;4964117;28;20122;-75
2023/08/29 10:40:07;;;;;;;12.85;10.30;;;15.40;99.90;;;;;;4970619;28;20106;-76
2023/08/29 10:42:54;;;;;;;10.98;8.43;;;15.50;99.90;;;;;;4964597;28;20023;-75
2023/08/29 10:45:21;;;;;;;8.43;7.38;;;15.70;99.90;;;;;;4966547;28;20035;-76
2023/08/29 10:47:47;;;;;;;10.55;8.52;;;15.70;99.90;;;;;;4964473;28;20041;-76
2023/08/29 10:50:22;;;;;;;9.23;7.85;;;15.80;99.90;;;;;;4965503;28;20034;-76
2023/08/29 10:52:53;;;;;;;6.35;5.35;;;15.80;99.90;;;;;;4963369;28;20125;-75
2023/08/29 10:55:27;;;;;;;7.13;4.93;;;15.80;99.90;;;;;;4963724;28;20030;-76
2023/08/29 10:57:58;;;;;;;6.90;5.50;;;15.80;99.90;;;;;;4964008;28;20110;-76
2023/08/29 11:00:44;;;;;;;6.18;5.53;;;15.80;99.90;;;;;;4967904;28;20488;-77
2023/08/29 11:03:10;;;;;;;7.60;5.70;;;15.80;99.90;;;;;;4967671;28;20031;-73
2023/08/29 11:05:39;;;;;;;8.88;7.00;;;15.80;99.90;;;;;;4967599;28;20034;-74
2023/08/29 11:08:23;;;;;;;9.07;7.03;;;15.90;99.90;;;;;;4964671;28;20494;-74
2023/08/29 11:11:07;;;;;;;;;;;15.90;99.90;;;;;;4966691;28;20029;-74
2023/08/29 11:13:33;;;;;;;8.98;7.75;;;16.00;99.90;;;;;;4967864;28;19910;-74
2023/08/29 11:15:59;;;;;;;9.70;6.70;;;16.00;99.90;;;;;;4964325;28;20038;-74
2023/08/29 11:18:26;;;;;;;7.57;5.28;;;16.00;99.90;;;;;;4964953;28;20047;-76
2023/08/29 11:20:53;;;;;;;9.52;6.82;;;16.00;99.90;;;;;;4961317;28;20062;-76
2023/08/29 11:23:33;;;;;;;9.02;7.22;;;16.00;99.90;;;;;;4960402;28;20035;-75
2023/08/29 11:25:59;;;;;;;7.75;6.90;;;16.00;99.90;;;;;;4965939;28;20517;-76
2023/08/29 11:28:25;;;;;;;9.95;7.82;;;16.00;99.90;;;;;;4963294;28;20039;-76
2023/08/29 11:30:54;;;;;;;11.05;8.07;;;16.10;99.90;;;;;;4961008;28;20085;-76
2023/08/29 11:33:21;;;;;;;7.50;6.47;;;16.10;99.90;;;;;;4964978;28;20035;-76
2023/08/29 11:35:50;;;;;;;6.70;5.18;;;16.10;99.90;;;;;;4967851;28;20091;-76
2023/08/29 11:38:15;;;;;;;4.38;3.80;;;16.20;99.90;;;;;;4967820;28;20040;-76
2023/08/29 11:40:42;;;;;;;5.00;4.32;;;16.20;99.90;;;;;;4970239;28;20039;-76
2023/08/29 11:43:09;;;;;;;7.30;4.18;;;16.20;99.90;;;;;;4975245;28;20031;-76
2023/08/29 11:45:40;;;;;;;4.80;3.03;;;16.30;99.90;;;;;;4975876;28;20035;-73
2023/08/29 11:48:11;;;;;;;3.25;2.70;;;16.30;99.90;;;;;;4969711;28;20093;-76
2023/08/29 11:50:39;;;;;;;4.00;3.17;;;16.30;99.90;;;;;;4967406;28;23873;-76
2023/08/29 11:53:05;;;;;;;7.20;4.03;;;16.30;99.90;;;;;;4961595;28;20037;-75
2023/08/29 11:55:31;;;;;;;6.45;4.22;;;16.30;99.90;;;;;;4967187;28;20034;-78
2023/08/29 11:58:00;;;;;;;6.45;4.55;;;16.30;99.90;;;;;;4971724;28;20019;-76
2023/08/29 12:00:25;;;;;;;8.02;5.60;;;16.30;99.90;;;;;;4968581;28;20492;-76
2023/08/29 12:02:51;;;;;;;6.65;5.40;;;16.30;99.90;;;;;;4960109;28;20031;-77
2023/08/29 12:05:20;;;;;;;6.05;5.45;;;16.30;99.90;;;;;;4966999;28;20027;-76
2023/08/29 12:07:51;;;;;;;8.98;6.30;;;16.30;99.90;;;;;;4957827;28;20493;-76
2023/08/29 12:10:16;;;;;;;7.13;5.80;;;16.20;99.90;;;;;;4973211;28;20037;-75
2023/08/29 12:12:45;;;;;;;9.43;6.72;;;16.10;99.90;;;;;;4969485;28;20558;-75
2023/08/29 12:15:17;;;;;;;7.53;6.65;;;16.10;99.90;;;;;;4970067;28;20042;-75
2023/08/29 12:17:47;;;;;;;7.22;6.45;;;16.00;99.90;;;;;;4970462;28;20485;-75
2023/08/29 12:20:13;;;;;;;7.38;6.40;;;15.90;99.90;;;;;;4965033;28;20031;-76
2023/08/29 12:22:48;;;;;;;8.18;7.40;;;15.80;99.90;;;;;;4972848;28;20030;-76
2023/08/29 12:25:15;;;;;;;11.82;8.07;;;15.70;99.90;;;;;;4973053;28;20038;-76
2023/08/29 12:27:44;;;;;;;10.15;7.18;;;15.70;99.90;;;;;;4966423;28;20053;-77
2023/08/29 12:30:13;;;;;;;11.60;8.38;;;15.60;99.90;;;;;;4971591;28;20505;-75
2023/08/29 12:32:39;;;;;;;9.07;6.60;;;15.50;99.90;;;;;;4971491;28;20019;-75
2023/08/29 12:35:06;;;;;;;10.38;7.30;;;15.50;99.90;;;;;;4975235;28;20409;-77
2023/08/29 12:37:32;;;;;;;8.63;6.53;;;15.50;99.90;;;;;;4963441;28;20027;-76
2023/08/29 12:40:05;;;;;;;9.25;6.65;;;15.50;99.90;;;;;;4965916;28;20030;-76
2023/08/29 12:42:33;;;;;;;9.75;7.10;;;15.50;99.90;;;;;;4944355;28;20030;-77
2023/08/29 12:44:59;;;;;;;8.07;6.63;;;15.50;99.90;;;;;;4975469;28;20018;-77
2023/08/29 12:47:31;;;;;;;11.55;7.45;;;15.50;99.90;;;;;;4972140;28;20058;-76
2023/08/29 12:49:56;;;;;;;7.40;6.53;;;15.50;99.90;;;;;;4975174;28;20545;-76